Time;durP1;ratioP1;P1;durP2;ratioP2;P2;SDS_P1;SDS_P2;PMS_P1;PMS_P2;Temp;Humidity;BMP_temperature;BMP_pressure;BME280_temperature;BME280_humidity;BME280_pressure;Samples;Min_cycle;Max_cycle;Signal;HPM_P1;HPM_P2
2021/08/05 00:00:18;;;;;;;;;4.33;4.33;;;;;20.32;57.21;100847.69;5061499;28;46263;-85
2021/08/05 00:02:44;;;;;;;;;4.00;4.00;;;;;;;;5061372;28;45431;-85
2021/08/05 00:05:10;;;;;;;;;7.00;5.33;;;;;20.39;57.40;100850.22;5061350;28;45350;-84
2021/08/05 00:07:35;;;;;;;;;6.00;6.00;;;;;20.36;57.48;100851.16;5061745;28;45348;-84
2021/08/05 00:10:01;;;;;;;;;5.00;5.00;;;;;20.34;57.47;100847.63;5061782;28;46208;-84
2021/08/05 00:12:26;;;;;;;;;6.00;5.67;;;;;20.35;57.80;100844.94;5061231;28;45283;-84
2021/08/05 00:14:51;;;;;;;;;6.00;5.00;;;;;20.36;58.05;100837.81;5060978;28;45268;-84
2021/08/05 00:17:17;;;;;;;;;4.33;4.33;;;;;;;;5061269;28;45665;-85
2021/08/05 00:19:42;;;;;;;;;4.00;4.00;;;;;20.31;57.70;100829.00;5059213;28;45986;-85
2021/08/05 00:22:08;;;;;;;;;5.33;5.33;;;;;20.33;57.84;100832.53;5060513;28;45571;-85
2021/08/05 00:24:33;;;;;;;;;4.67;4.00;;;;;20.34;58.10;100839.63;5060660;28;45409;-85
2021/08/05 00:26:59;;;;;;;;;5.67;4.67;;;;;20.32;57.98;100834.34;5060756;28;45364;-85
2021/08/05 00:29:25;;;;;;;;;5.33;5.00;;;;;20.32;58.11;100836.13;5060419;28;45513;-85
2021/08/05 00:31:50;;;;;;;;;8.00;6.00;;;;;20.32;57.88;100830.78;5060395;28;45358;-85
2021/08/05 00:34:16;;;;;;;;;7.33;5.00;;;;;20.30;57.78;100835.28;5060626;28;45457;-85
2021/08/05 00:36:41;;;;;;;;;9.00;7.00;;;;;20.30;57.93;100832.59;5060742;28;45251;-85
2021/08/05 00:39:06;;;;;;;;;4.00;4.00;;;;;20.26;57.72;100823.78;5061261;28;45401;-85
2021/08/05 00:41:32;;;;;;;;;5.00;5.00;;;;;20.27;57.85;100829.97;5059144;28;45393;-85
2021/08/05 00:43:58;;;;;;;;;9.33;5.00;;;;;20.26;57.97;100839.81;5060527;28;45359;-86
2021/08/05 00:46:24;;;;;;;;;4.00;4.00;;;;;20.25;58.05;100833.59;5060001;28;45561;-85
2021/08/05 00:48:49;;;;;;;;;3.67;3.67;;;;;20.21;57.51;100821.22;5060701;28;45858;-85
2021/08/05 00:51:14;;;;;;;;;7.00;5.00;;;;;20.20;57.78;100824.78;5060258;28;46013;-85
2021/08/05 00:53:42;;;;;;;;;5.00;5.00;;;;;20.21;57.74;100829.22;5075901;27;45710;-85
2021/08/05 00:56:07;;;;;;;;;3.00;3.00;;;;;20.20;57.69;100832.78;5060418;28;45303;-85
2021/08/05 00:58:33;;;;;;;;;5.67;4.33;;;;;20.19;57.52;100831.03;5060048;28;45421;-86
2021/08/05 01:01:07;;;;;;;;;3.67;3.67;;;;;20.16;57.54;100822.22;5060570;28;45411;-85
2021/08/05 01:03:37;;;;;;;;;5.33;5.33;;;;;20.14;57.30;100822.25;5059739;28;45281;-85
2021/08/05 01:06:26;;;;;;;;;5.67;5.00;;;;;20.09;57.54;100811.69;5059289;28;45426;-85
2021/08/05 01:09:02;;;;;;;;;6.67;5.67;;;;;20.08;57.47;100814.34;5058563;28;45334;-86
2021/08/05 01:11:35;;;;;;;;;7.00;5.67;;;;;20.06;57.55;100811.72;5059346;28;45516;-85
2021/08/05 01:14:04;;;;;;;;;6.00;4.67;;;;;20.01;57.67;100801.13;5060275;28;45177;-85
2021/08/05 01:16:32;;;;;;;;;4.33;4.00;;;;;19.99;57.64;100800.28;5059492;28;45299;-84
2021/08/05 01:19:33;;;;;;;;;5.67;5.67;;;;;20.00;57.75;100804.72;5059034;28;46520;-85
2021/08/05 01:22:16;;;;;;;;;5.33;5.33;;;;;19.97;57.98;100804.78;5058883;28;45454;-85
2021/08/05 01:24:52;;;;;;;;;9.00;6.33;;;;;19.96;58.04;100800.34;5058771;28;46102;-85
2021/08/05 01:27:19;;;;;;;;;7.00;5.00;;;;;19.92;58.15;100803.13;5059793;28;45761;-85
2021/08/05 01:29:44;;;;;;;;;8.33;8.33;;;;;19.92;58.10;100801.34;5061431;28;45379;-85
2021/08/05 01:32:11;;;;;;;;;6.67;6.67;;;;;19.90;58.02;100797.81;5061354;28;45371;-85
2021/08/05 01:34:37;;;;;;;;;9.00;7.00;;;;;19.92;58.28;100808.44;5059971;28;45409;-85
2021/08/05 01:37:06;;;;;;;;;6.00;6.00;;;;;19.93;58.12;100805.75;5058517;28;45442;-85
2021/08/05 01:39:31;;;;;;;;;8.00;5.00;;;;;19.90;58.59;100811.16;5058791;28;46632;-85
2021/08/05 01:41:57;;;;;;;;;7.00;7.00;;;;;19.91;58.27;100807.56;5059766;28;45456;-86
2021/08/05 01:44:23;;;;;;;;;8.67;5.67;;;;;19.87;58.42;100793.41;5060677;28;45367;-86
2021/08/05 01:46:49;;;;;;;;;8.00;6.33;;;;;19.86;58.13;100788.97;5075486;28;45474;-86
2021/08/05 01:49:15;;;;;;;;;4.00;4.00;;;;;19.88;58.27;100795.16;5058945;28;45360;-86
2021/08/05 01:51:41;;;;;;;;;7.00;7.00;;;;;19.86;58.12;100777.47;5059818;28;45386;-85
2021/08/05 01:54:06;;;;;;;;;6.00;6.00;;;;;19.85;58.18;100779.25;5066505;28;45279;-84
2021/08/05 01:56:32;;;;;;;;;7.00;6.00;;;;;19.84;58.26;100784.63;5078897;28;45321;-86
2021/08/05 01:58:59;;;;;;;;;7.00;5.00;;;;;19.84;58.34;100774.78;5080627;28;45560;-84
2021/08/05 02:01:25;;;;;;;;;5.67;5.33;;;;;19.83;58.59;100781.06;5065903;28;45426;-86
2021/08/05 02:04:10;;;;;;;;;7.67;6.00;;;;;19.84;58.58;100776.59;5060435;28;45243;-84
2021/08/05 02:06:43;;;;;;;;;7.00;6.00;;;;;19.81;58.75;100769.53;5060389;28;45408;-85
2021/08/05 02:09:16;;;;;;;;;7.00;5.00;;;;;19.77;58.87;100773.19;5058482;28;46181;-85
2021/08/05 02:11:47;;;;;;;;;7.00;6.33;;;;;19.79;58.64;100782.03;5057979;28;45766;-85
2021/08/05 02:14:15;;;;;;;;;7.67;5.67;;;;;19.76;58.61;100764.28;5057102;28;45422;-84
2021/08/05 02:16:45;;;;;;;;;5.67;5.67;;;;;19.78;58.80;100773.16;5058357;28;45328;-85
2021/08/05 02:19:11;;;;;;;;;5.67;5.67;;;;;19.74;58.52;100760.78;5073260;28;47045;-85
2021/08/05 02:21:37;;;;;;;;;8.00;5.67;;;;;19.74;58.83;100760.78;5058246;28;45341;-85
2021/08/05 02:24:03;;;;;;;;;7.33;5.67;;;;;19.76;58.67;100760.75;5056908;28;45299;-85
2021/08/05 02:26:29;;;;;;;;;6.67;5.67;;;;;19.75;58.89;100761.66;5058696;28;45360;-86
2021/08/05 02:28:56;;;;;;;;;5.00;5.00;;;;;19.73;59.10;100761.72;5058181;28;46396;-85
2021/08/05 02:31:22;;;;;;;;;9.33;5.67;;;;;19.72;59.16;100765.28;5058238;28;45400;-85
2021/08/05 02:33:50;;;;;;;;;6.00;5.00;;;;;19.70;59.04;100767.09;5058173;28;45361;-85
2021/08/05 02:36:16;;;;;;;;;7.00;7.00;;;;;19.69;59.09;100754.69;5058815;28;45365;-86
2021/08/05 02:38:41;;;;;;;;;7.67;6.67;;;;;19.65;59.37;100755.66;5057653;28;45569;-85
2021/08/05 02:41:08;;;;;;;;;6.00;5.00;;;;;19.64;59.37;100745.88;5057626;28;45451;-85
2021/08/05 02:43:35;;;;;;;;;7.00;7.00;;;;;19.66;59.50;100752.94;5058044;28;45385;-85
2021/08/05 02:46:02;;;;;;;;;7.33;7.33;;;;;19.59;59.46;100737.09;5058143;28;45401;-86
2021/08/05 02:48:29;;;;;;;;;7.33;7.33;;;;;19.61;59.28;100751.25;5058148;28;45759;-86
2021/08/05 02:50:55;;;;;;;;;8.33;7.00;;;;;19.64;59.52;100756.53;5060837;28;45304;-86
2021/08/05 02:53:21;;;;;;;;;9.33;8.33;;;;;19.62;59.39;100753.03;5060619;28;45313;-84
2021/08/05 02:55:47;;;;;;;;;7.00;7.00;;;;;19.62;59.24;100747.69;5060814;28;45248;-86
2021/08/05 02:58:14;;;;;;;;;8.33;6.00;;;;;19.61;59.49;100745.94;5060736;28;46227;-86
2021/08/05 03:00:40;;;;;;;;;8.67;7.00;;;;;19.60;59.51;100746.84;5059967;28;45432;-85
2021/08/05 03:03:06;;;;;;;;;9.00;7.00;;;;;19.58;59.59;100748.66;5057521;28;45323;-85
2021/08/05 03:05:32;;;;;;;;;4.67;4.67;;;;;19.57;59.62;100745.13;5057813;28;45398;-85
2021/08/05 03:07:57;;;;;;;;;8.00;8.00;;;;;19.52;59.97;100737.22;5056965;28;46040;-85
2021/08/05 03:10:22;;;;;;;;;10.33;8.33;;;;;19.53;59.87;100738.09;5057295;28;45464;-85
2021/08/05 03:12:48;;;;;;;;;7.67;7.33;;;;;19.53;59.81;100738.97;5057305;28;45283;-85
2021/08/05 03:15:14;;;;;;;;;6.67;6.67;;;;;19.48;59.80;100735.50;5057465;28;45270;-85
2021/08/05 03:17:39;;;;;;;;;8.67;8.67;;;;;19.50;59.89;100739.03;5056851;28;46003;-85
2021/08/05 03:20:06;;;;;;;;;7.33;7.00;;;;;19.49;59.96;100734.63;5055460;28;45397;-85
2021/08/05 03:22:32;;;;;;;;;9.67;8.33;;;;;19.50;60.00;100727.50;5057081;28;45410;-86
2021/08/05 03:24:57;;;;;;;;;7.67;7.67;;;;;19.45;59.95;100724.94;5057095;28;45529;-86
2021/08/05 03:27:23;;;;;;;;;9.00;7.67;;;;;19.49;60.44;100725.72;5056752;28;46583;-85
2021/08/05 03:29:48;;;;;;;;;9.33;7.00;;;;;19.43;60.14;100718.75;5056355;28;45683;-85
2021/08/05 03:32:13;;;;;;;;;9.33;8.00;;;;;19.42;60.24;100722.31;5056792;28;45393;-86
2021/08/05 03:34:39;;;;;;;;;10.33;8.00;;;;;19.40;60.58;100716.13;5056965;28;45435;-85
2021/08/05 03:37:04;;;;;;;;;8.00;8.00;;;;;19.39;60.44;100703.72;5056815;28;46204;-85
2021/08/05 03:39:30;;;;;;;;;8.33;8.33;;;;;19.38;60.49;100708.16;5056770;28;45366;-85
2021/08/05 03:41:55;;;;;;;;;8.00;7.67;;;;;19.41;60.51;100710.78;5056825;28;45334;-85
2021/08/05 03:44:21;;;;;;;;;8.67;8.00;;;;;19.41;60.52;100707.25;5056771;28;45470;-85
2021/08/05 03:46:46;;;;;;;;;10.67;10.33;;;;;19.40;60.45;100713.47;5056665;28;45278;-86
2021/08/05 03:49:12;;;;;;;;;8.67;8.67;;;;;19.38;60.43;100709.94;5056806;28;45512;-85
2021/08/05 03:51:37;;;;;;;;;10.00;8.00;;;;;19.38;60.58;100713.50;5057359;28;45567;-85
2021/08/05 03:54:03;;;;;;;;;12.67;10.00;;;;;19.38;60.93;100713.50;5056916;28;45253;-85
2021/08/05 03:56:28;;;;;;;;;9.67;9.67;;;;;19.34;60.59;100711.81;5056673;28;45506;-85
2021/08/05 03:58:54;;;;;;;;;12.67;10.00;;;;;19.36;60.67;100719.75;5056429;28;45264;-85
2021/08/05 04:01:20;;;;;;;;;9.67;9.00;;;;;19.36;60.86;100714.44;5056666;28;45534;-85
2021/08/05 04:03:45;;;;;;;;;11.33;9.00;;;;;19.34;60.81;100706.47;5056830;28;45314;-85
2021/08/05 04:06:11;;;;;;;;;10.33;10.33;;;;;19.25;60.88;100691.53;5056548;28;46040;-85
2021/08/05 04:08:37;;;;;;;;;14.33;10.67;;;;;19.27;61.06;100697.72;5056561;28;45322;-85
2021/08/05 04:11:04;;;;;;;;;9.33;9.00;;;;;19.30;61.16;100705.66;5056362;28;45521;-85
2021/08/05 04:13:29;;;;;;;;;10.33;8.33;;;;;19.27;61.01;100704.84;5056293;28;45416;-85
2021/08/05 04:15:54;;;;;;;;;10.00;9.33;;;;;19.28;61.38;100717.25;5056069;28;45570;-85
2021/08/05 04:18:20;;;;;;;;;9.00;9.00;;;;;19.22;61.14;100710.28;5056343;28;45424;-85
2021/08/05 04:20:46;;;;;;;;;11.00;10.33;;;;;19.20;61.56;100704.97;5056197;28;45725;-85
2021/08/05 04:23:11;;;;;;;;;9.67;9.00;;;;;19.20;61.48;100712.09;5074929;28;45354;-84
2021/08/05 04:25:37;;;;;;;;;10.33;10.33;;;;;19.17;61.50;100698.81;5061673;28;45466;-85
2021/08/05 04:28:03;;;;;;;;;8.33;8.00;;;;;19.20;61.42;100707.63;5057249;28;45314;-85
2021/08/05 04:30:28;;;;;;;;;13.67;10.00;;;;;19.17;61.68;100704.13;5056318;28;45412;-85
2021/08/05 04:32:54;;;;;;;;;9.67;9.67;;;;;19.19;61.43;100704.97;5057888;28;45182;-85
2021/08/05 04:35:19;;;;;;;;;12.33;9.00;;;;;19.18;61.41;100706.78;5057959;28;45398;-85
2021/08/05 04:37:55;;;;;;;;;9.67;8.00;;;;;19.19;61.69;100703.19;5058458;28;45220;-85
2021/08/05 04:40:21;;;;;;;;;11.67;9.67;;;;;19.20;61.42;100710.31;5057817;28;45373;-85
2021/08/05 04:42:47;;;;;;;;;11.33;8.00;;;;;19.20;61.44;100709.41;5062992;28;45473;-85
2021/08/05 04:45:13;;;;;;;;;10.67;10.00;;;;;19.24;61.60;100711.13;5064872;28;45857;-85
2021/08/05 04:47:57;;;;;;;;;8.67;8.00;;;;;19.21;61.73;100696.06;5063270;28;45436;-85
2021/08/05 04:50:26;;;;;;;;;10.33;8.00;;;;;19.25;61.93;100707.53;5060555;28;45552;-85
2021/08/05 04:52:53;;;;;;;;;14.33;12.33;;;;;19.22;61.65;100696.94;5060159;28;45284;-86
2021/08/05 04:55:18;;;;;;;;;12.67;11.67;;;;;19.26;61.63;100708.41;5059897;28;46460;-86
2021/08/05 04:58:01;;;;;;;;;12.33;10.00;;;;;19.28;61.58;100720.81;5059503;28;45343;-86
2021/08/05 05:00:34;;;;;;;;;10.67;10.33;;;;;19.27;61.52;100726.19;5084007;28;44676;-85
2021/08/05 05:03:01;;;;;;;;;14.00;10.33;;;;;19.28;61.51;100726.13;5078533;28;44748;-86
2021/08/05 05:05:27;;;;;;;;;11.00;10.33;;;;;19.29;61.21;100725.22;5057518;28;47126;-86
2021/08/05 05:07:52;;;;;;;;;11.00;9.67;;;;;19.29;61.28;100727.03;5058905;28;45829;-86
2021/08/05 05:10:20;;;;;;;;;9.67;8.33;;;;;19.29;61.33;100730.53;5059420;28;45287;-86
2021/08/05 05:12:45;;;;;;;;;10.33;8.33;;;;;19.27;61.09;100723.50;5059327;28;45672;-86
2021/08/05 05:15:12;;;;;;;;;12.33;10.00;;;;;19.27;61.17;100727.03;5058928;28;46382;-86
2021/08/05 05:17:39;;;;;;;;;12.00;9.00;;;;;19.25;61.32;100723.50;5058911;28;45362;-86
2021/08/05 05:20:07;;;;;;;;;15.00;11.67;;;;;19.24;61.12;100710.22;5058854;28;45449;-86
2021/08/05 05:22:32;;;;;;;;;13.67;11.33;;;;;19.26;61.22;100724.41;5059238;28;45371;-85
2021/08/05 05:24:58;;;;;;;;;12.67;9.67;;;;;19.25;61.36;100725.31;5058744;28;46078;-86
2021/08/05 05:27:23;;;;;;;;;13.00;10.67;;;;;19.23;61.19;100727.16;5058919;28;45246;-86
2021/08/05 05:29:50;;;;;;;;;9.67;9.00;;;;;19.24;61.43;100726.22;5058826;28;45302;-85
2021/08/05 05:32:15;;;;;;;;;8.00;8.00;;;;;19.23;61.49;100727.16;5057946;28;45443;-86
2021/08/05 05:34:41;;;;;;;;;13.00;10.33;;;;;19.23;61.13;100722.66;5056809;28;47409;-86
2021/08/05 05:37:06;;;;;;;;;11.00;11.00;;;;;19.23;61.04;100735.13;5058609;28;45343;-86
2021/08/05 05:39:32;;;;;;;;;13.00;11.00;;;;;19.20;61.27;100723.63;5059230;28;45597;-86
2021/08/05 05:41:57;;;;;;;;;5.67;5.33;;;;;19.21;61.38;100721.81;5058900;28;45453;-86
2021/08/05 05:44:23;;;;;;;;;9.00;8.33;;;;;19.17;61.21;100722.78;5074186;27;48509;-86
2021/08/05 05:46:48;;;;;;;;;12.33;10.67;;;;;19.15;61.31;100721.94;5058464;28;45457;-86
2021/08/05 05:49:13;;;;;;;;;12.00;10.33;;;;;19.20;61.20;100730.75;5058853;28;45773;-86
2021/08/05 05:51:39;;;;;;;;;14.67;13.00;;;;;19.15;61.26;100721.94;5058945;28;45318;-86
2021/08/05 05:54:05;;;;;;;;;14.33;12.33;;;;;19.20;61.20;100734.28;5056505;28;47047;-86
2021/08/05 05:56:31;;;;;;;;;9.33;9.33;;;;;19.15;61.17;100728.16;5058759;28;45389;-86
2021/08/05 05:58:56;;;;;;;;;14.00;12.00;;;;;19.20;61.56;100736.06;5073790;27;45377;-85
2021/08/05 06:01:21;;;;;;;;;13.00;10.33;;;;;19.18;61.58;100733.44;5058587;28;45405;-85
2021/08/05 06:03:47;;;;;;;;;11.33;10.33;;;;;19.16;61.37;100718.38;5058088;28;45361;-85
2021/08/05 06:06:12;;;;;;;;;14.00;11.33;;;;;19.21;61.76;100736.03;5057021;28;45409;-86
2021/08/05 06:08:37;;;;;;;;;12.67;12.00;;;;;19.23;61.53;100745.78;5058385;28;45842;-86
2021/08/05 06:11:03;;;;;;;;;12.33;9.00;;;;;19.24;61.28;100747.53;5058546;28;45417;-85
2021/08/05 06:13:28;;;;;;;;;14.33;11.00;;;;;19.24;61.48;100748.41;5058239;28;46287;-86
2021/08/05 06:15:53;;;;;;;;;11.00;11.00;;;;;19.22;61.34;100744.91;5058075;28;45242;-86
2021/08/05 06:18:19;;;;;;;;;11.00;8.67;;;;;19.24;61.62;100747.53;5058292;28;45256;-86
2021/08/05 06:20:45;;;;;;;;;13.33;9.00;;;;;19.17;61.28;100750.31;5058289;28;45216;-87
2021/08/05 06:23:10;;;;;;;;;10.67;9.00;;;;;19.19;61.30;100755.59;5057630;28;46026;-86
2021/08/05 06:25:39;;;;;;;;;11.00;9.00;;;;;19.21;61.60;100765.34;5058017;28;45362;-86
2021/08/05 06:28:05;;;;;;;;;10.67;9.67;;;;;19.17;61.60;100746.75;5058189;28;45455;-86
2021/08/05 06:30:31;;;;;;;;;9.67;9.67;;;;;19.25;61.44;100759.97;5058284;28;45394;-86
2021/08/05 06:32:57;;;;;;;;;9.67;9.67;;;;;19.21;61.35;100748.47;5057681;28;46128;-86
2021/08/05 06:35:22;;;;;;;;;10.67;10.00;;;;;19.19;61.43;100744.94;5057747;28;45463;-86
2021/08/05 06:37:48;;;;;;;;;12.00;8.00;;;;;19.26;61.41;100751.06;5057900;28;45484;-86
2021/08/05 06:40:15;;;;;;;;;8.33;8.33;;;;;19.24;61.25;100740.44;5057716;28;45318;-86
2021/08/05 06:42:41;;;;;;;;;8.67;8.00;;;;;19.27;61.39;100747.50;5057501;28;45723;-85
2021/08/05 06:45:09;;;;;;;;;11.00;9.33;;;;;19.28;61.09;100750.13;5057511;28;45346;-86
2021/08/05 06:47:39;;;;;;;;;12.33;11.00;;;;;19.28;61.32;100739.47;5057928;28;45338;-85
2021/08/05 06:50:05;;;;;;;;;12.00;10.33;;;;;19.29;61.56;100741.19;5056637;28;45457;-85
2021/08/05 06:52:30;;;;;;;;;13.00;10.67;;;;;19.31;61.14;100741.19;5057689;28;46611;-85
2021/08/05 06:54:56;;;;;;;;;13.67;11.67;;;;;19.25;61.13;100722.66;5057663;28;45302;-85
2021/08/05 06:57:21;;;;;;;;;10.33;9.00;;;;;19.26;61.24;100727.94;5058336;28;45862;-86
2021/08/05 06:59:47;;;;;;;;;12.33;10.33;;;;;19.35;61.27;100740.22;5058810;28;45311;-85
2021/08/05 07:02:12;;;;;;;;;9.00;8.00;;;;;19.32;61.15;100743.81;5061153;28;47160;-86
2021/08/05 07:04:37;;;;;;;;;11.67;11.33;;;;;19.26;61.36;100722.63;5075499;28;44690;-86
2021/08/05 07:07:03;;;;;;;;;11.00;10.00;;;;;19.42;61.38;100743.63;5080365;28;45040;-85
2021/08/05 07:09:28;;;;;;;;;12.00;10.67;;;;;19.44;61.48;100749.81;5070739;28;44975;-86
2021/08/05 07:11:55;;;;;;;;;10.00;10.00;;;;;19.47;61.19;100754.22;5065830;28;46099;-85
2021/08/05 07:14:20;;;;;;;;;5.50;5.50;;;;;19.48;61.14;100751.50;5061707;28;45534;-86
2021/08/05 07:16:46;;;;;;;;;10.33;10.33;;;;;19.48;61.21;100745.31;5059199;28;45425;-86
2021/08/05 07:19:11;;;;;;;;;9.33;9.33;;;;;19.53;60.87;100748.75;5058708;28;45315;-86
2021/08/05 07:21:37;;;;;;;;;12.67;10.67;;;;;19.55;61.01;100745.16;5058838;28;46069;-85
2021/08/05 07:24:02;;;;;;;;;9.00;8.00;;;;;19.59;60.88;100743.31;5058736;28;45863;-86
2021/08/05 07:26:28;;;;;;;;;8.33;8.00;;;;;19.61;60.53;100749.47;5059804;28;45397;-86
2021/08/05 07:28:53;;;;;;;;;14.33;10.33;;;;;19.62;60.87;100747.69;5059153;28;45390;-86
2021/08/05 07:31:19;;;;;;;;;11.33;11.33;;;;;19.65;60.80;100747.66;5058598;28;45412;-86
2021/08/05 07:33:47;;;;;;;;;15.67;11.33;;;;;19.66;61.07;100749.41;5057214;28;45243;-86
2021/08/05 07:36:14;;;;;;;;;13.00;13.00;;;;;19.71;60.62;100749.31;5056803;28;45338;-86
2021/08/05 07:38:39;;;;;;;;;11.33;11.00;;;;;19.72;60.50;100757.28;5072691;28;45449;-86
2021/08/05 07:41:04;;;;;;;;;13.00;11.00;;;;;19.79;60.74;100758.03;5056479;28;45454;-86
2021/08/05 07:43:30;;;;;;;;;13.00;11.33;;;;;19.84;60.30;100757.94;5058799;28;45338;-85
2021/08/05 07:45:55;;;;;;;;;13.67;11.67;;;;;19.89;60.28;100745.38;5064074;28;45454;-86
2021/08/05 07:48:20;;;;;;;;;17.33;13.33;;;;;19.90;60.49;100741.81;5060639;28;45620;-86
2021/08/05 07:50:46;;;;;;;;;14.00;9.33;;;;;19.98;60.19;100744.28;5066073;28;45405;-85
2021/08/05 07:53:11;;;;;;;;;10.00;9.67;;;;;19.98;59.85;100739.84;5060231;28;45265;-85
2021/08/05 07:55:37;;;;;;;;;17.00;13.67;;;;;20.02;59.98;100746.88;5058007;28;46002;-85
2021/08/05 07:58:02;;;;;;;;;12.33;11.00;;;;;20.09;59.94;100741.44;5057694;28;45390;-85
2021/08/05 08:00:28;;;;;;;;;13.67;11.33;;;;;20.17;59.84;100747.47;5056740;28;46665;-86
2021/08/05 08:02:53;;;;;;;;;13.33;13.33;;;;;20.21;59.41;100754.50;5055514;28;45417;-86
2021/08/05 08:05:19;;;;;;;;;13.33;11.67;;;;;20.22;59.52;100750.03;5056639;28;45744;-85
2021/08/05 08:07:44;;;;;;;;;11.00;11.00;;;;;20.24;59.40;100748.22;5056584;28;45229;-86
2021/08/05 08:10:11;;;;;;;;;18.33;16.00;;;;;20.23;59.37;100733.97;5056350;28;46063;-85
2021/08/05 08:12:38;;;;;;;;;14.67;10.33;;;;;20.32;59.35;100734.69;5056038;28;45549;-86
2021/08/05 08:15:04;;;;;;;;;12.33;11.33;;;;;20.35;59.45;100734.59;5055183;28;45413;-86
2021/08/05 08:17:30;;;;;;;;;16.33;15.00;;;;;20.41;59.53;100733.59;5058719;28;45516;-86
2021/08/05 08:19:55;;;;;;;;;17.00;12.33;;;;;20.46;59.46;100732.56;5059676;28;45378;-85
2021/08/05 08:22:21;;;;;;;;;12.67;12.67;;;;;20.50;59.42;100724.47;5059729;28;45342;-85
2021/08/05 08:24:46;;;;;;;;;19.00;14.00;;;;;20.54;59.03;100720.81;5060024;28;45453;-85
2021/08/05 08:27:11;;;;;;;;;15.00;13.33;;;;;20.56;59.24;100719.00;5059660;28;45224;-85
2021/08/05 08:29:37;;;;;;;;;13.67;11.67;;;;;20.63;59.10;100719.69;5059484;28;46030;-85
2021/08/05 08:32:03;;;;;;;;;12.33;12.33;;;;;20.68;59.05;100716.00;5060269;28;45462;-86
2021/08/05 08:34:28;;;;;;;;;12.00;12.00;;;;;20.79;58.84;100710.38;5061330;28;45354;-85
2021/08/05 08:36:55;;;;;;;;;13.67;12.00;;;;;20.90;58.80;100707.44;5060852;28;45386;-86
2021/08/05 08:39:22;;;;;;;;;13.67;11.00;;;;;21.02;58.69;100716.09;5060182;28;47516;-86
2021/08/05 08:41:48;;;;;;;;;13.33;11.00;;;;;21.12;58.27;100712.25;5060464;28;45561;-86
2021/08/05 08:44:14;;;;;;;;;10.33;10.33;;;;;21.24;58.04;100713.69;5061614;28;45232;-85
2021/08/05 08:46:41;;;;;;;;;14.67;10.67;;;;;21.34;58.40;100703.59;5060994;28;45416;-86
2021/08/05 08:49:08;;;;;;;;;11.67;11.67;;;;;21.52;57.36;100712.03;5060971;28;45731;-86
2021/08/05 08:51:34;;;;;;;;;16.33;13.33;;;;;21.63;57.61;100707.25;5060403;28;45314;-86
2021/08/05 08:54:03;;;;;;;;;15.67;14.33;;;;;21.71;57.28;100704.34;5059674;28;45227;-86
2021/08/05 08:56:30;;;;;;;;;17.33;13.67;;;;;21.77;56.92;100703.28;5059296;28;45660;-86
2021/08/05 08:58:58;;;;;;;;;12.33;10.33;;;;;21.82;56.74;100708.50;5058900;28;45709;-86
2021/08/05 09:01:24;;;;;;;;;12.00;10.67;;;;;21.89;56.60;100707.44;5059082;28;45481;-86
2021/08/05 09:03:50;;;;;;;;;12.00;10.33;;;;;21.97;56.25;100709.88;5059238;28;45364;-86
2021/08/05 09:06:15;;;;;;;;;12.67;10.67;;;;;22.12;56.80;100715.66;5059299;28;45273;-86
2021/08/05 09:08:41;;;;;;;;;11.67;11.00;;;;;22.24;57.29;100707.25;5058792;28;46325;-86
2021/08/05 09:11:07;;;;;;;;;10.33;9.00;;;;;22.35;56.54;100711.38;5057173;28;45329;-86
2021/08/05 09:13:33;;;;;;;;;12.67;12.00;;;;;22.40;55.25;100706.75;5058696;28;45314;-86
2021/08/05 09:15:59;;;;;;;;;12.67;10.33;;;;;22.46;55.00;100711.91;5058878;28;45412;-86
2021/08/05 09:18:42;;;;;;;;;26.67;18.33;;;;;22.56;55.91;100716.03;5058712;28;45569;-86
2021/08/05 09:21:18;;;;;;;;;12.67;11.00;;;;;22.70;54.43;100709.34;5058397;28;45343;-86
2021/08/05 09:23:57;;;;;;;;;14.33;12.67;;;;;22.83;53.89;100711.59;5058047;28;45437;-86
2021/08/05 09:26:26;;;;;;;;;14.00;11.33;;;;;22.94;53.82;100712.13;5058453;28;45379;-86
2021/08/05 09:29:04;;;;;;;;;11.33;9.67;;;;;22.99;52.93;100718.19;5057293;28;45282;-86
2021/08/05 09:31:30;;;;;;;;;12.00;9.00;;;;;23.00;53.03;100709.22;5058586;28;45437;-86
2021/08/05 09:34:03;;;;;;;;;9.00;9.00;;;;;23.08;52.80;100713.41;5058082;28;45364;-85
2021/08/05 09:36:29;;;;;;;;;10.33;6.33;;;;;23.10;52.75;100704.41;5056972;28;45363;-86
2021/08/05 09:38:54;;;;;;;;;10.67;8.00;;;;;23.25;52.20;100694.03;5056293;28;47150;-85
2021/08/05 09:41:20;;;;;;;;;6.33;6.33;;;;;23.59;51.41;100714.28;5057878;28;45446;-84
2021/08/05 09:43:45;;;;;;;;;9.33;8.00;;;;;24.11;51.10;100712.34;5058211;28;45752;-86
2021/08/05 09:46:13;;;;;;;;;6.67;6.67;;;;;24.64;50.30;100717.41;5073515;28;45600;-85
2021/08/05 09:48:45;;;;;;;;;8.00;7.00;;;;;25.13;49.87;100712.69;5058116;28;46481;-86
2021/08/05 09:51:18;;;;;;;;;6.00;6.00;;;;;25.64;48.74;100693.31;5057596;28;45428;-86
2021/08/05 09:53:53;;;;;;;;;7.33;7.00;;;;;26.19;49.00;100688.06;5058273;28;45501;-86
2021/08/05 09:56:19;;;;;;;;;8.00;8.00;;;;;26.76;47.31;100694.28;5057060;28;45523;-86
2021/08/05 09:58:44;;;;;;;;;10.33;8.33;;;;;27.15;46.64;100684.19;5058824;28;45770;-87
2021/08/05 10:01:10;;;;;;;;;9.00;8.00;;;;;27.31;45.85;100684.22;5060316;28;45444;-86
2021/08/05 10:03:35;;;;;;;;;6.67;6.67;;;;;27.24;45.19;100680.13;5059773;28;45354;-85
2021/08/05 10:06:06;;;;;;;;;7.67;6.33;;;;;27.16;44.76;100678.72;5058605;28;45461;-85
2021/08/05 10:08:43;;;;;;;;;6.00;6.00;;;;;27.06;44.89;100681.00;5058151;28;45449;-86
2021/08/05 10:11:09;;;;;;;;;5.00;5.00;;;;;27.06;44.69;100674.72;5057652;28;45468;-85
2021/08/05 10:13:37;;;;;;;;;6.00;6.00;;;;;27.00;44.43;100680.44;5058211;28;45532;-85
2021/08/05 10:16:04;;;;;;;;;5.33;5.33;;;;;27.09;44.45;100676.44;5058718;28;45355;-86
2021/08/05 10:18:34;;;;;;;;;5.33;4.67;;;;;27.34;43.45;100680.50;5056656;28;47213;-85
2021/08/05 10:21:04;;;;;;;;;5.00;5.00;;;;;27.71;43.64;100680.31;5057576;28;45372;-86
2021/08/05 10:23:30;;;;;;;;;5.67;5.67;;;;;28.04;42.99;100657.75;5058459;28;45383;-86
2021/08/05 10:25:59;;;;;;;;;5.00;5.00;;;;;28.47;43.22;100667.00;5074366;28;45491;-86
2021/08/05 10:28:26;;;;;;;;;4.67;4.33;;;;;28.87;41.99;100655.59;5059951;28;45482;-85
2021/08/05 10:30:53;;;;;;;;;4.67;4.67;;;;;29.10;41.35;100664.19;5060152;28;45743;-88
2021/08/05 10:33:20;;;;;;;;;5.33;4.33;;;;;29.04;41.46;100653.75;5061816;28;45386;-85
2021/08/05 10:35:48;;;;;;;;;4.33;4.00;;;;;28.93;41.41;100659.78;5065196;28;45482;-85
2021/08/05 10:38:15;;;;;;;;;5.67;4.33;;;;;28.96;41.47;100650.56;5068952;28;46467;-85
2021/08/05 10:40:41;;;;;;;;;5.33;5.00;;;;;29.22;41.42;100651.69;5076246;28;44779;-85
2021/08/05 10:43:06;;;;;;;;;6.33;4.67;;;;;29.52;40.30;100651.66;5080932;28;45285;-86
2021/08/05 10:45:33;;;;;;;;;3.00;3.00;;;;;29.57;39.48;100646.84;5081839;28;45409;-85
2021/08/05 10:48:02;;;;;;;;;4.33;3.33;;;;;29.44;38.84;100644.94;5080408;28;45422;-87
2021/08/05 10:50:28;;;;;;;;;5.67;5.00;;;;;29.11;38.79;100636.13;5080672;28;44653;-84
2021/08/05 10:52:55;;;;;;;;;4.33;3.00;;;;;28.86;38.70;100644.88;5080269;28;44692;-85
2021/08/05 10:55:28;;;;;;;;;8.00;4.67;;;;;28.54;38.82;100649.47;5077862;28;44739;-85
2021/08/05 10:58:05;;;;;;;;;6.33;5.00;;;;;28.21;39.82;100645.97;5072541;28;45487;-85
2021/08/05 11:00:50;;;;;;;;;4.00;4.00;;;;;28.21;40.13;100635.16;5072116;28;45312;-85
2021/08/05 11:03:37;;;;;;;;;4.33;4.33;;;;;28.36;40.69;100632.50;5070856;28;45374;-85
2021/08/05 11:06:22;;;;;;;;;4.33;4.33;;;;;28.65;39.89;100626.31;5061446;28;45454;-86
2021/08/05 11:08:48;;;;;;;;;4.00;4.00;;;;;28.96;39.04;100618.13;5059815;28;47141;-87
2021/08/05 11:11:19;;;;;;;;;3.00;3.00;;;;;29.18;39.25;100614.97;5059516;28;45314;-86
2021/08/05 11:13:45;;;;;;;;;1.67;1.67;;;;;29.21;38.83;100613.91;5058878;28;45406;-86
2021/08/05 11:16:10;;;;;;;;;5.00;4.00;;;;;29.10;38.03;100609.19;5058312;28;45417;-87
2021/08/05 11:18:35;;;;;;;;;4.67;4.00;;;;;28.97;37.88;100609.03;5057487;28;46299;-86